createdAt,value
2022-09-03T00:00:08.381Z,44.30
2022-09-03T00:02:40.859Z,44.50
2022-09-03T00:05:09.981Z,44.50
2022-09-03T00:07:43.411Z,44.50
2022-09-03T00:10:19.592Z,44.70
2022-09-03T00:12:50.837Z,44.70
2022-09-03T00:15:22.075Z,44.70
2022-09-03T00:17:54.792Z,44.80
2022-09-03T00:20:28.429Z,45.00
2022-09-03T00:22:58.927Z,44.90
2022-09-03T00:25:38.843Z,45.00
2022-09-03T00:28:18.829Z,45.00
2022-09-03T00:30:57.017Z,45.10
2022-09-03T00:33:30.072Z,45.20
2022-09-03T00:36:03.286Z,46.40
2022-09-03T00:38:32.141Z,45.30
2022-09-03T00:41:02.505Z,45.40
2022-09-03T00:43:35.767Z,45.80
2022-09-03T00:46:51.285Z,45.50
2022-09-03T00:49:35.672Z,45.60
2022-09-03T00:52:33.653Z,45.70
2022-09-03T00:55:41.003Z,45.80
2022-09-03T00:58:33.406Z,45.80
2022-09-03T01:01:10.668Z,45.90
2022-09-03T01:04:06.628Z,45.90
2022-09-03T01:07:05.210Z,46.00
2022-09-03T01:09:48.249Z,46.10
2022-09-03T01:12:56.257Z,46.10
2022-09-03T01:15:44.281Z,46.20
2022-09-03T01:18:14.768Z,46.30
2022-09-03T01:20:57.065Z,46.30
2022-09-03T01:23:42.830Z,46.60
2022-09-03T01:26:37.061Z,46.50
2022-09-03T01:29:12.263Z,46.60
2022-09-03T01:31:57.616Z,46.60
2022-09-03T01:34:40.160Z,46.70
2022-09-03T01:37:14.469Z,46.80
2022-09-03T01:40:15.132Z,46.60
2022-09-03T01:43:01.449Z,46.70
2022-09-03T01:45:33.387Z,46.90
2022-09-03T01:48:14.770Z,47.00
2022-09-03T01:50:59.912Z,47.00
2022-09-03T01:53:46.113Z,46.80
2022-09-03T01:56:51.142Z,47.40
2022-09-03T01:59:33.082Z,46.80
2022-09-03T02:02:10.366Z,46.80
2022-09-03T02:04:37.754Z,47.20
2022-09-03T02:07:06.287Z,46.90
2022-09-03T02:09:33.607Z,46.90
2022-09-03T02:12:06.949Z,47.40
2022-09-03T02:14:35.208Z,47.00
2022-09-03T02:17:04.204Z,47.10
2022-09-03T02:19:31.934Z,47.00
2022-09-03T02:21:59.357Z,47.20
2022-09-03T02:24:28.727Z,47.30
2022-09-03T02:26:56.927Z,48.00
2022-09-03T02:29:25.213Z,47.40
2022-09-03T02:31:54.267Z,47.50
2022-09-03T02:34:21.679Z,47.60
2022-09-03T02:36:49.152Z,47.70
2022-09-03T02:39:17.369Z,47.80
2022-09-03T02:41:44.972Z,47.90
2022-09-03T02:44:24.064Z,47.90
2022-09-03T02:46:57.137Z,48.00
2022-09-03T02:49:24.626Z,48.00
2022-09-03T02:51:51.917Z,48.20
2022-09-03T02:54:21.213Z,48.10
2022-09-03T02:56:49.789Z,48.60
2022-09-03T02:59:17.971Z,48.20
2022-09-03T03:01:46.517Z,48.30
2022-09-03T03:04:14.688Z,48.70
2022-09-03T03:06:42.056Z,48.70
2022-09-03T03:09:09.346Z,49.20
2022-09-03T03:11:37.037Z,49.10
2022-09-03T03:14:04.500Z,48.90
2022-09-03T03:16:32.004Z,48.80
2022-09-03T03:19:00.212Z,48.80
2022-09-03T03:21:27.517Z,48.80
2022-09-03T03:23:54.888Z,48.80
2022-09-03T03:26:24.181Z,49.10
2022-09-03T03:28:57.251Z,49.30
2022-09-03T03:31:24.919Z,49.10
2022-09-03T03:33:54.382Z,49.10
2022-09-03T03:36:23.460Z,49.20
2022-09-03T03:38:54.243Z,49.10
2022-09-03T03:41:24.395Z,49.40
2022-09-03T03:43:56.387Z,49.40
2022-09-03T03:46:25.328Z,49.50
2022-09-03T03:48:53.038Z,49.40
2022-09-03T03:51:20.507Z,49.80
2022-09-03T03:53:47.919Z,49.70
2022-09-03T03:56:16.856Z,49.80
2022-09-03T03:58:44.418Z,49.80
2022-09-03T04:01:38.153Z,49.90
2022-09-03T04:04:05.749Z,50.20
2022-09-03T04:06:33.108Z,49.90
2022-09-03T04:09:00.442Z,50.00
2022-09-03T04:11:27.916Z,50.20
2022-09-03T04:13:55.352Z,50.90
2022-09-03T04:16:25.173Z,50.10
2022-09-03T04:18:54.375Z,50.10
2022-09-03T04:21:24.569Z,50.30
2022-09-03T04:23:54.313Z,50.20
2022-09-03T04:26:24.312Z,50.40
2022-09-03T04:28:51.879Z,50.50
2022-09-03T04:31:21.271Z,50.50
2022-09-03T04:33:48.860Z,50.60
2022-09-03T04:36:19.275Z,50.70
2022-09-03T04:38:48.691Z,50.80
2022-09-03T04:41:20.308Z,50.80
2022-09-03T04:43:51.537Z,50.80
2022-09-03T04:46:20.827Z,50.80
2022-09-03T04:48:51.365Z,50.90
2022-09-03T04:51:21.776Z,51.00
2022-09-03T04:53:56.652Z,50.90
2022-09-03T04:56:26.568Z,51.00
2022-09-03T04:59:00.169Z,51.00
2022-09-03T05:01:31.717Z,51.20
2022-09-03T05:04:00.315Z,51.20
2022-09-03T05:06:29.313Z,51.10
2022-09-03T05:08:57.781Z,51.10
2022-09-03T05:11:26.455Z,51.20
2022-09-03T05:13:56.932Z,51.50
2022-09-03T05:16:26.336Z,51.30
2022-09-03T05:18:55.397Z,51.40
2022-09-03T05:21:23.073Z,51.50
2022-09-03T05:23:51.965Z,51.60
2022-09-03T05:26:22.475Z,51.40
2022-09-03T05:28:55.158Z,51.60
2022-09-03T05:31:23.882Z,51.90
2022-09-03T05:33:53.471Z,52.00
2022-09-03T05:36:23.576Z,51.70
2022-09-03T05:38:54.112Z,51.80
2022-09-03T05:41:23.003Z,52.40
2022-09-03T05:43:55.939Z,51.90
2022-09-03T05:46:32.253Z,51.90
2022-09-03T05:49:02.195Z,53.00
2022-09-03T05:51:31.181Z,52.00
2022-09-03T05:53:59.265Z,52.70
2022-09-03T05:56:28.886Z,52.10
2022-09-03T05:59:01.973Z,52.10
2022-09-03T06:01:32.580Z,52.10
2022-09-03T06:04:16.582Z,52.30
2022-09-03T06:06:46.861Z,52.20
2022-09-03T06:09:18.104Z,52.20
2022-09-03T06:11:47.121Z,51.80
2022-09-03T06:14:15.115Z,52.10
2022-09-03T06:16:44.824Z,52.00
2022-09-03T06:19:14.246Z,52.10
2022-09-03T06:21:43.733Z,51.90
2022-09-03T06:24:20.300Z,52.00
2022-09-03T06:26:48.077Z,52.00
2022-09-03T06:29:16.464Z,52.00
2022-09-03T06:31:43.914Z,51.90
2022-09-03T06:34:12.627Z,51.90
2022-09-03T06:36:41.370Z,51.90
2022-09-03T06:39:08.716Z,52.20
2022-09-03T06:41:36.166Z,51.70
2022-09-03T06:44:06.373Z,51.90
2022-09-03T06:46:36.445Z,51.50
2022-09-03T06:49:03.820Z,51.60
2022-09-03T06:51:33.236Z,51.50
2022-09-03T06:54:04.233Z,51.90
2022-09-03T06:56:39.068Z,51.30
2022-09-03T06:59:16.734Z,51.30
2022-09-03T07:01:46.297Z,51.50
2022-09-03T07:04:20.042Z,51.40
2022-09-03T07:06:48.270Z,51.20
2022-09-03T07:09:18.169Z,52.70
2022-09-03T07:11:49.376Z,51.10
2022-09-03T07:14:18.997Z,50.90
2022-09-03T07:16:47.864Z,50.70
2022-09-03T07:19:15.660Z,50.70
2022-09-03T07:21:48.375Z,50.40
2022-09-03T07:24:18.540Z,50.30
2022-09-03T07:26:49.380Z,50.20
2022-09-03T07:29:20.446Z,50.00
2022-09-03T07:31:51.461Z,49.90
2022-09-03T07:34:22.048Z,49.80
2022-09-03T07:36:51.873Z,49.70
2022-09-03T07:39:20.004Z,49.60
2022-09-03T07:41:47.599Z,49.50
2022-09-03T07:44:19.582Z,49.30
2022-09-03T07:46:49.321Z,49.20
2022-09-03T07:49:17.427Z,48.90
2022-09-03T07:51:46.545Z,48.80
2022-09-03T07:54:14.124Z,49.70
2022-09-03T07:56:41.660Z,48.40
2022-09-03T07:59:09.485Z,48.40
2022-09-03T08:01:38.334Z,48.20
2022-09-03T08:04:09.402Z,48.10
2022-09-03T08:06:38.484Z,48.20
2022-09-03T08:09:10.070Z,47.80
2022-09-03T08:11:40.167Z,47.60
2022-09-03T08:14:13.542Z,47.40
2022-09-03T08:16:43.878Z,47.30
2022-09-03T08:19:13.212Z,47.30
2022-09-03T08:21:45.754Z,47.20
2022-09-03T08:24:16.663Z,47.10
2022-09-03T08:26:50.710Z,47.10
2022-09-03T08:29:20.395Z,47.00
2022-09-03T08:31:48.121Z,46.70
2022-09-03T08:34:17.635Z,46.60
2022-09-03T08:36:47.175Z,46.50
2022-09-03T08:39:14.934Z,46.20
2022-09-03T08:41:51.175Z,46.10
2022-09-03T08:44:25.025Z,46.10
2022-09-03T08:47:10.246Z,46.10
2022-09-03T08:49:56.658Z,45.80
2022-09-03T08:53:00.289Z,46.10
2022-09-03T08:55:51.204Z,45.90
2022-09-03T08:58:20.917Z,45.40
2022-09-03T09:01:02.673Z,45.30
2022-09-03T09:03:52.691Z,45.00
2022-09-03T09:07:01.036Z,45.20
2022-09-03T09:09:55.161Z,45.20
2022-09-03T09:12:46.826Z,44.90
2022-09-03T09:15:32.325Z,44.80
2022-09-03T09:18:09.854Z,44.60
2022-09-03T09:20:57.429Z,44.30
2022-09-03T09:23:34.921Z,44.20
2022-09-03T09:26:08.880Z,44.00
2022-09-03T09:28:38.392Z,43.90
2022-09-03T09:31:10.165Z,43.80
2022-09-03T09:33:38.981Z,43.60
2022-09-03T09:36:10.016Z,43.40
2022-09-03T09:38:39.509Z,43.20
2022-09-03T09:41:10.073Z,42.60
2022-09-03T09:43:39.093Z,43.10
2022-09-03T09:46:12.409Z,42.90
2022-09-03T09:48:53.735Z,42.80
2022-09-03T09:51:26.414Z,42.50
2022-09-03T09:54:12.604Z,42.40
2022-09-03T09:56:42.546Z,42.10
2022-09-03T09:59:11.532Z,42.30
2022-09-03T10:01:44.830Z,42.20
2022-09-03T10:04:13.844Z,42.10
2022-09-03T10:06:57.283Z,41.90
2022-09-03T10:09:29.904Z,41.90
2022-09-03T10:12:19.708Z,41.80
2022-09-03T10:14:55.533Z,41.60
2022-09-03T10:17:47.689Z,42.60
2022-09-03T10:20:37.416Z,41.30
2022-09-03T10:23:04.706Z,41.30
2022-09-03T10:25:56.107Z,41.30
2022-09-03T10:28:27.716Z,40.60
2022-09-03T10:31:29.098Z,40.80
2022-09-03T10:34:03.316Z,40.80
2022-09-03T10:36:30.693Z,40.70
2022-09-03T10:39:20.028Z,41.20
2022-09-03T10:42:03.508Z,40.80
2022-09-03T10:45:28.972Z,40.50
2022-09-03T10:48:16.328Z,40.40
2022-09-03T10:50:57.785Z,40.30
2022-09-03T10:53:31.303Z,40.10
2022-09-03T10:56:04.764Z,39.90
2022-09-03T10:58:54.072Z,39.90
2022-09-03T11:01:42.708Z,39.80
2022-09-03T11:04:49.420Z,39.70
2022-09-03T11:07:21.882Z,39.50
2022-09-03T11:10:11.423Z,39.30
2022-09-03T11:12:44.558Z,39.10
2022-09-03T11:15:48.414Z,39.20
2022-09-03T11:18:38.607Z,38.80
2022-09-03T11:21:12.388Z,38.80
2022-09-03T11:23:55.175Z,38.70
2022-09-03T11:26:26.331Z,39.30
2022-09-03T11:29:05.911Z,38.80
2022-09-03T11:32:00.322Z,38.50
2022-09-03T11:34:33.058Z,38.20
2022-09-03T11:37:18.754Z,38.40
2022-09-03T11:40:19.937Z,37.90
2022-09-03T11:42:47.796Z,37.50
2022-09-03T11:45:36.581Z,37.60
2022-09-03T11:48:33.675Z,37.50
2022-09-03T11:51:01.125Z,37.10
2022-09-03T11:53:35.862Z,38.20
2022-09-03T11:56:23.977Z,36.90
2022-09-03T11:59:06.005Z,36.80
2022-09-03T12:01:35.467Z,36.90
2022-09-03T12:04:07.773Z,36.80
2022-09-03T12:07:12.588Z,36.50
2022-09-03T12:09:53.669Z,36.60
2022-09-03T12:12:40.719Z,37.00
2022-09-03T12:15:29.693Z,36.30
2022-09-03T12:18:20.710Z,36.30
2022-09-03T12:21:09.821Z,36.10
2022-09-03T12:23:42.482Z,36.10
2022-09-03T12:26:15.670Z,36.20
2022-09-03T12:28:46.110Z,35.70
2022-09-03T12:31:23.601Z,35.70
2022-09-03T12:33:59.176Z,35.40
2022-09-03T12:36:37.079Z,35.60
2022-09-03T12:39:14.110Z,36.70
2022-09-03T12:42:12.416Z,35.50
2022-09-03T12:44:42.848Z,35.50
2022-09-03T12:47:36.339Z,35.90
2022-09-03T12:50:20.587Z,36.20
2022-09-03T12:52:59.322Z,35.30
2022-09-03T12:55:29.602Z,35.40
2022-09-03T12:58:02.630Z,35.40
2022-09-03T13:00:33.862Z,35.50
2022-09-03T13:03:08.798Z,35.30
2022-09-03T13:05:52.745Z,36.10
2022-09-03T13:08:24.605Z,34.90
2022-09-03T13:10:56.577Z,34.90
2022-09-03T13:13:27.870Z,34.90
2022-09-03T13:16:07.541Z,34.90
2022-09-03T13:18:54.196Z,34.70
2022-09-03T13:21:27.442Z,34.90
2022-09-03T13:24:22.543Z,34.60
2022-09-03T13:27:01.692Z,34.50
2022-09-03T13:29:35.279Z,34.50
2022-09-03T13:32:37.111Z,34.40
2022-09-03T13:35:08.464Z,34.50
2022-09-03T13:38:09.098Z,34.50
2022-09-03T13:41:19.735Z,34.10
2022-09-03T13:44:03.104Z,34.40
2022-09-03T13:46:45.891Z,34.10
2022-09-03T13:50:00.171Z,34.10
2022-09-03T13:52:43.544Z,34.30
2022-09-03T13:55:17.898Z,34.20
2022-09-03T13:57:51.569Z,34.30
2022-09-03T14:00:43.007Z,34.10
2022-09-03T14:03:14.634Z,34.20
2022-09-03T14:06:11.816Z,33.90
2022-09-03T14:09:00.004Z,33.50
2022-09-03T14:11:47.114Z,33.40
2022-09-03T14:14:20.727Z,33.50
2022-09-03T14:16:59.883Z,33.50
2022-09-03T14:19:46.652Z,33.50
2022-09-03T14:22:24.472Z,33.50
2022-09-03T14:24:54.661Z,33.40
2022-09-03T14:27:31.263Z,33.20
2022-09-03T14:30:06.444Z,32.90
2022-09-03T14:32:54.283Z,32.90
2022-09-03T14:35:27.559Z,32.80
2022-09-03T14:37:58.090Z,34.00
2022-09-03T14:40:43.900Z,32.80
2022-09-03T14:43:23.665Z,32.90
2022-09-03T14:46:07.094Z,32.90
2022-09-03T14:48:58.114Z,32.70
2022-09-03T14:51:50.622Z,32.60
2022-09-03T14:54:40.686Z,32.70
2022-09-03T14:57:49.109Z,32.60
2022-09-03T15:00:20.916Z,32.70
2022-09-03T15:03:15.682Z,32.60
2022-09-03T15:06:09.293Z,32.70
2022-09-03T15:09:18.587Z,32.70
2022-09-03T15:12:47.567Z,32.40
2022-09-03T15:15:47.148Z,32.60
2022-09-03T15:19:01.798Z,32.50
2022-09-03T15:21:55.188Z,32.50
2022-09-03T15:24:22.780Z,32.50
2022-09-03T15:27:28.676Z,32.30
2022-09-03T15:30:07.616Z,32.30
2022-09-03T15:32:56.178Z,32.30
2022-09-03T15:35:53.358Z,33.30
2022-09-03T15:38:41.706Z,32.30
2022-09-03T15:41:45.319Z,32.30
2022-09-03T15:44:23.297Z,32.40
2022-09-03T15:47:12.202Z,32.10
2022-09-03T15:49:53.109Z,32.00
2022-09-03T15:52:40.830Z,32.00
2022-09-03T15:55:34.124Z,32.00
2022-09-03T15:58:10.706Z,32.00
2022-09-03T16:01:15.273Z,32.30
2022-09-03T16:04:01.593Z,32.20
2022-09-03T16:06:52.504Z,32.50
2022-09-03T16:09:42.690Z,32.60
2022-09-03T16:12:41.045Z,32.50
2022-09-03T16:15:20.742Z,32.70
2022-09-03T16:18:03.926Z,32.80
2022-09-03T16:20:35.560Z,32.90
2022-09-03T16:23:25.363Z,33.10
2022-09-03T16:25:59.159Z,33.10
2022-09-03T16:28:58.431Z,32.80
2022-09-03T16:31:38.117Z,32.90
2022-09-03T16:34:05.493Z,33.10
2022-09-03T16:36:47.944Z,33.20
2022-09-03T16:39:15.288Z,33.20
2022-09-03T16:41:57.824Z,33.30
2022-09-03T16:44:39.600Z,33.40
2022-09-03T16:47:25.779Z,33.70
2022-09-03T16:50:33.496Z,33.70
2022-09-03T16:53:28.466Z,34.00
2022-09-03T16:56:33.919Z,34.10
2022-09-03T16:59:20.150Z,34.10
2022-09-03T17:01:57.533Z,34.50
2022-09-03T17:04:49.276Z,34.40
2022-09-03T17:07:37.790Z,34.50
2022-09-03T17:10:32.757Z,34.50
2022-09-03T17:13:34.119Z,34.80
2022-09-03T17:16:32.461Z,35.00
2022-09-03T17:19:08.963Z,35.10
2022-09-03T17:21:46.000Z,35.30
2022-09-03T17:24:36.071Z,35.30
2022-09-03T17:27:28.518Z,35.40
2022-09-03T17:30:20.572Z,35.50
2022-09-03T17:33:04.429Z,35.70
2022-09-03T17:35:53.359Z,35.90
2022-09-03T17:38:37.302Z,36.00
2022-09-03T17:41:12.361Z,36.20
2022-09-03T17:44:04.477Z,36.20
2022-09-03T17:47:07.934Z,36.40
2022-09-03T17:49:49.027Z,36.60
2022-09-03T17:52:35.171Z,36.60
2022-09-03T17:55:32.086Z,36.90
2022-09-03T17:58:19.507Z,37.00
2022-09-03T18:01:13.145Z,37.40
2022-09-03T18:03:57.375Z,37.40
2022-09-03T18:06:36.674Z,37.70
2022-09-03T18:09:20.466Z,37.50
2022-09-03T18:12:00.254Z,37.90
2022-09-03T18:14:49.124Z,38.10
2022-09-03T18:17:31.375Z,38.40
2022-09-03T18:20:32.488Z,38.50
2022-09-03T18:23:28.374Z,38.90
2022-09-03T18:26:20.036Z,39.10
2022-09-03T18:29:11.944Z,39.60
2022-09-03T18:31:58.146Z,39.80
2022-09-03T18:34:52.786Z,39.90
2022-09-03T18:37:42.847Z,40.20
2022-09-03T18:40:37.162Z,39.90
2022-09-03T18:43:28.420Z,40.50
2022-09-03T18:50:09.018Z,41.00
2022-09-03T18:53:10.961Z,41.40
2022-09-03T18:56:27.828Z,41.60
2022-09-03T18:59:43.103Z,41.80
2022-09-03T19:03:00.725Z,42.10
2022-09-03T19:05:56.882Z,42.40
2022-09-03T19:08:47.955Z,42.70
2022-09-03T19:11:55.964Z,43.00
2022-09-03T19:14:54.650Z,43.20
2022-09-03T19:17:56.018Z,43.60
2022-09-03T19:20:50.009Z,43.70
2022-09-03T19:23:36.384Z,43.70
2022-09-03T19:26:49.543Z,44.00
2022-09-03T19:30:04.315Z,44.20
2022-09-03T19:33:05.238Z,44.40
2022-09-03T19:36:08.275Z,44.50
2022-09-03T19:39:02.483Z,44.60
2022-09-03T19:42:01.203Z,44.80
2022-09-03T19:45:19.106Z,45.00
2022-09-03T19:48:23.233Z,45.10
2022-09-03T19:51:24.928Z,45.30
2022-09-03T19:54:11.660Z,45.50
2022-09-03T19:56:59.570Z,45.70
2022-09-03T19:59:54.767Z,45.80
2022-09-03T20:02:42.622Z,46.10
2022-09-03T20:05:46.680Z,46.20
2022-09-03T20:08:35.697Z,46.40
2022-09-03T20:11:05.295Z,46.60
2022-09-03T20:13:54.291Z,46.70
2022-09-03T20:16:50.591Z,47.00
2022-09-03T20:19:30.029Z,47.10
2022-09-03T20:22:32.504Z,47.30
2022-09-03T20:25:33.802Z,47.70
2022-09-03T20:28:07.365Z,47.50
2022-09-03T20:30:56.025Z,47.70
2022-09-03T20:33:42.127Z,47.80
2022-09-03T20:36:24.620Z,47.80
2022-09-03T20:39:13.684Z,47.80
2022-09-03T20:42:01.700Z,48.00
2022-09-03T20:44:52.371Z,48.20
2022-09-03T20:47:41.401Z,48.20
2022-09-03T20:50:28.294Z,48.20
2022-09-03T20:53:11.178Z,48.30
2022-09-03T20:55:49.185Z,48.30
2022-09-03T20:58:59.132Z,48.40
2022-09-03T21:01:51.151Z,48.50
2022-09-03T21:04:56.297Z,48.50
2022-09-03T21:07:35.711Z,48.80
2022-09-03T21:10:07.528Z,49.00
2022-09-03T21:12:53.877Z,48.90
2022-09-03T21:15:36.678Z,49.50
2022-09-03T21:18:13.879Z,49.30
2022-09-03T21:21:06.796Z,49.50
2022-09-03T21:23:40.118Z,49.60
2022-09-03T21:26:15.179Z,49.70
2022-09-03T21:28:47.966Z,49.70
2022-09-03T21:31:35.117Z,49.90
2022-09-03T21:34:17.352Z,50.10
2022-09-03T21:36:49.007Z,50.20
2022-09-03T21:39:31.573Z,50.30
2022-09-03T21:42:20.132Z,50.40
2022-09-03T21:45:05.764Z,50.60
2022-09-03T21:47:40.025Z,50.70
2022-09-03T21:50:07.664Z,50.80
2022-09-03T21:52:49.184Z,50.40
2022-09-03T21:55:24.160Z,51.00
2022-09-03T21:58:22.634Z,51.10
2022-09-03T22:00:55.712Z,51.30
2022-09-03T22:03:23.190Z,51.50
2022-09-03T22:06:06.580Z,51.60
2022-09-03T22:08:49.143Z,51.90
2022-09-03T22:11:54.434Z,52.20
2022-09-03T22:14:21.798Z,52.10
2022-09-03T22:17:03.976Z,51.60
2022-09-03T22:19:37.405Z,52.20
2022-09-03T22:22:32.536Z,52.30
2022-09-03T22:25:14.914Z,52.50
2022-09-03T22:28:00.742Z,52.80
2022-09-03T22:30:35.609Z,53.00
2022-09-03T22:33:18.772Z,53.20
2022-09-03T22:35:59.317Z,53.30
2022-09-03T22:38:51.918Z,53.60
2022-09-03T22:41:41.981Z,53.70
2022-09-03T22:44:55.183Z,53.80
2022-09-03T22:47:51.895Z,53.80
2022-09-03T22:50:41.195Z,54.10
2022-09-03T22:53:17.416Z,54.20
2022-09-03T22:55:58.745Z,54.30
2022-09-03T22:58:32.986Z,54.60
2022-09-03T23:01:34.601Z,54.70
2022-09-03T23:04:31.364Z,54.80
2022-09-03T23:07:18.932Z,55.10
2022-09-03T23:09:54.237Z,55.10
2022-09-03T23:12:44.504Z,55.10
2022-09-03T23:15:23.289Z,55.30
2022-09-03T23:18:20.297Z,55.40
2022-09-03T23:21:15.704Z,55.50
2022-09-03T23:23:50.633Z,55.80
2022-09-03T23:26:27.356Z,55.80
2022-09-03T23:29:19.386Z,56.10
2022-09-03T23:31:46.828Z,56.20
2022-09-03T23:34:14.284Z,56.20
2022-09-03T23:37:32.997Z,56.30
2022-09-03T23:40:34.155Z,56.60
2022-09-03T23:43:29.735Z,56.60
2022-09-03T23:46:21.189Z,56.00
2022-09-03T23:49:26.692Z,56.50
2022-09-03T23:52:39.723Z,56.60
2022-09-03T23:55:33.268Z,56.80
2022-09-03T23:58:11.509Z,57.00
